createdAt,value
2022-09-28T00:01:29.113Z,1.50
2022-09-28T00:03:59.884Z,1.35
2022-09-28T00:06:30.473Z,1.23
2022-09-28T00:09:01.355Z,1.30
2022-09-28T00:11:31.137Z,1.30
2022-09-28T00:14:01.384Z,1.23
2022-09-28T00:16:32.529Z,1.10
2022-09-28T00:19:01.591Z,1.85
2022-09-28T00:21:32.233Z,1.10
2022-09-28T00:24:16.056Z,1.38
2022-09-28T00:26:48.486Z,1.17
2022-09-28T00:29:22.680Z,1.65
2022-09-28T00:31:53.426Z,1.15
2022-09-28T00:34:22.148Z,1.38
2022-09-28T00:36:50.349Z,1.10
2022-09-28T00:39:19.384Z,1.20
2022-09-28T00:41:48.810Z,1.00
2022-09-28T00:44:40.670Z,1.20
2022-09-28T00:47:16.379Z,0.80
2022-09-28T00:49:50.627Z,0.90
2022-09-28T00:52:23.716Z,0.90
2022-09-28T00:54:55.416Z,1.10
2022-09-28T00:57:25.179Z,1.35
2022-09-28T00:59:53.683Z,1.25
2022-09-28T01:02:22.483Z,1.50
2022-09-28T01:04:52.573Z,1.02
2022-09-28T01:07:20.999Z,1.38
2022-09-28T01:09:49.701Z,1.20
2022-09-28T01:12:17.812Z,1.98
2022-09-28T01:14:48.928Z,1.27
2022-09-28T01:17:20.175Z,1.77
2022-09-28T01:20:25.035Z,1.52
2022-09-28T01:23:29.329Z,1.40
2022-09-28T01:26:18.462Z,1.42
2022-09-28T01:28:54.398Z,1.52
2022-09-28T01:31:30.879Z,1.45
2022-09-28T01:34:03.095Z,1.20
2022-09-28T01:36:37.914Z,1.50
2022-09-28T01:39:10.972Z,1.88
2022-09-28T01:41:45.936Z,1.48
2022-09-28T01:44:18.664Z,1.30
2022-09-28T01:46:49.567Z,1.10
2022-09-28T01:49:22.204Z,1.20
2022-09-28T01:51:56.494Z,1.30
2022-09-28T01:54:30.120Z,1.10
2022-09-28T01:57:06.589Z,1.60
2022-09-28T01:59:37.817Z,1.35
2022-09-28T02:02:11.008Z,1.10
2022-09-28T02:04:43.983Z,1.30
2022-09-28T02:07:16.604Z,1.00
2022-09-28T02:09:50.074Z,1.50
2022-09-28T02:12:25.114Z,1.27
2022-09-28T02:15:00.692Z,1.30
2022-09-28T02:17:29.314Z,1.30
2022-09-28T02:19:57.645Z,1.40
2022-09-28T02:22:29.745Z,1.23
2022-09-28T02:25:04.534Z,1.40
2022-09-28T02:27:40.575Z,1.08
2022-09-28T02:30:09.874Z,1.35
2022-09-28T02:32:42.544Z,1.75
2022-09-28T02:35:13.447Z,1.20
2022-09-28T02:37:42.092Z,1.20
2022-09-28T02:40:15.330Z,0.90
2022-09-28T02:43:01.198Z,1.17
2022-09-28T02:45:44.512Z,1.05
2022-09-28T02:48:42.675Z,1.15
2022-09-28T02:51:21.866Z,1.20
2022-09-28T02:54:19.722Z,1.38
2022-09-28T02:57:00.538Z,1.27
2022-09-28T02:59:45.284Z,1.10
2022-09-28T03:02:22.409Z,1.20
2022-09-28T03:05:04.097Z,1.13
2022-09-28T03:07:40.088Z,0.98
2022-09-28T03:10:14.756Z,1.00
2022-09-28T03:12:46.020Z,1.10
2022-09-28T03:15:22.561Z,1.10
2022-09-28T03:17:51.196Z,0.70
2022-09-28T03:20:19.873Z,1.20
2022-09-28T03:23:00.492Z,0.90
2022-09-28T03:25:36.133Z,0.90
2022-09-28T03:28:04.337Z,0.80
2022-09-28T03:30:37.130Z,0.80
2022-09-28T03:33:06.993Z,0.98
2022-09-28T03:35:35.665Z,0.90
2022-09-28T03:38:03.817Z,1.00
2022-09-28T03:40:34.358Z,0.73
2022-09-28T03:43:02.548Z,1.02
2022-09-28T03:46:07.762Z,0.50
2022-09-28T03:48:41.253Z,0.60
2022-09-28T03:51:13.238Z,0.70
2022-09-28T03:53:41.808Z,1.00
2022-09-28T03:56:13.943Z,0.90
2022-09-28T03:58:42.941Z,0.50
2022-09-28T04:01:17.645Z,0.68
2022-09-28T04:03:48.553Z,0.80
2022-09-28T04:06:16.750Z,1.20
2022-09-28T04:08:44.935Z,0.60
2022-09-28T04:11:13.112Z,0.70
2022-09-28T04:13:41.424Z,0.80
2022-09-28T04:16:13.336Z,0.60
2022-09-28T04:18:44.990Z,0.60
2022-09-28T04:21:37.955Z,0.70
2022-09-28T04:24:11.443Z,0.65
2022-09-28T04:26:39.875Z,0.70
2022-09-28T04:29:18.931Z,1.02
2022-09-28T04:32:02.695Z,0.80
2022-09-28T04:34:40.695Z,0.77
2022-09-28T04:37:11.320Z,0.63
2022-09-28T04:39:43.024Z,0.73
2022-09-28T04:42:13.618Z,0.90
2022-09-28T04:44:41.664Z,0.60
2022-09-28T04:47:12.229Z,0.90
2022-09-28T04:50:03.530Z,1.00
2022-09-28T04:52:37.670Z,0.90
2022-09-28T04:55:06.452Z,0.90
2022-09-28T04:57:35.965Z,0.90
2022-09-28T05:00:04.979Z,1.13
2022-09-28T05:02:37.032Z,0.98
2022-09-28T05:05:25.289Z,0.90
2022-09-28T05:08:22.168Z,1.02
2022-09-28T05:10:50.480Z,1.08
2022-09-28T05:13:24.222Z,1.30
2022-09-28T05:15:57.566Z,0.95
2022-09-28T05:18:29.737Z,0.70
2022-09-28T05:21:12.803Z,0.82
2022-09-28T05:23:41.610Z,1.30
2022-09-28T05:26:09.863Z,1.00
2022-09-28T05:28:38.022Z,0.80
2022-09-28T05:31:24.606Z,1.40
2022-09-28T05:34:20.848Z,1.10
2022-09-28T05:36:49.257Z,1.00
2022-09-28T05:39:18.613Z,1.02
2022-09-28T05:41:46.943Z,1.00
2022-09-28T05:44:15.162Z,1.42
2022-09-28T05:46:43.948Z,1.00
2022-09-28T05:49:14.077Z,1.17
2022-09-28T05:51:43.543Z,1.50
2022-09-28T05:54:11.788Z,1.10
2022-09-28T05:56:43.171Z,1.10
2022-09-28T05:59:12.117Z,1.30
2022-09-28T06:01:40.549Z,1.95
2022-09-28T06:04:10.908Z,1.30
2022-09-28T06:06:39.529Z,1.73
2022-09-28T06:09:09.172Z,1.60
2022-09-28T06:12:01.491Z,1.90
2022-09-28T06:14:40.452Z,2.35
2022-09-28T06:17:08.950Z,1.88
2022-09-28T06:19:37.367Z,2.30
2022-09-28T06:22:23.948Z,2.53
2022-09-28T06:25:06.857Z,2.10
2022-09-28T06:27:35.996Z,3.05
2022-09-28T06:30:04.589Z,1.95
2022-09-28T06:32:32.783Z,2.72
2022-09-28T06:35:01.018Z,2.20
2022-09-28T06:37:29.105Z,2.38
2022-09-28T06:40:00.030Z,3.28
2022-09-28T06:42:29.515Z,2.33
2022-09-28T06:45:25.925Z,2.85
2022-09-28T06:48:25.355Z,2.47
2022-09-28T06:50:53.742Z,2.08
2022-09-28T06:53:30.221Z,2.60
2022-09-28T06:56:12.524Z,2.70
2022-09-28T06:58:42.064Z,2.60
2022-09-28T07:01:12.066Z,2.70
2022-09-28T07:04:06.378Z,2.78
2022-09-28T07:06:53.869Z,2.22
2022-09-28T07:10:03.405Z,2.65
2022-09-28T07:13:06.145Z,2.90
2022-09-28T07:15:43.531Z,2.95
2022-09-28T07:18:14.603Z,2.50
2022-09-28T07:20:53.591Z,2.63
2022-09-28T07:23:22.906Z,2.60
2022-09-28T07:26:09.616Z,2.28
2022-09-28T07:28:51.239Z,2.28
2022-09-28T07:31:34.598Z,3.00
2022-09-28T07:34:23.147Z,1.90
2022-09-28T07:37:02.251Z,2.20
2022-09-28T07:39:30.552Z,1.92
2022-09-28T07:42:02.554Z,3.45
2022-09-28T07:44:32.018Z,3.05
2022-09-28T07:47:02.104Z,2.50
2022-09-28T07:50:00.210Z,2.28
2022-09-28T07:53:04.068Z,2.95
2022-09-28T07:55:52.401Z,2.55
2022-09-28T07:58:35.133Z,2.60
2022-09-28T08:01:31.106Z,2.50
2022-09-28T08:04:03.073Z,2.45
2022-09-28T08:06:32.688Z,2.63
2022-09-28T08:09:01.763Z,3.58
2022-09-28T08:11:49.962Z,2.40
2022-09-28T08:14:35.940Z,2.53
2022-09-28T08:17:24.225Z,2.80
2022-09-28T08:20:12.017Z,2.42
2022-09-28T08:22:40.076Z,2.35
2022-09-28T08:25:38.241Z,2.75
2022-09-28T08:28:07.869Z,2.97
2022-09-28T08:30:43.497Z,3.00
2022-09-28T08:33:35.247Z,2.65
2022-09-28T08:36:23.964Z,3.17
2022-09-28T08:39:10.547Z,3.53
2022-09-28T08:42:16.766Z,3.63
2022-09-28T08:45:15.561Z,2.97
2022-09-28T08:48:14.813Z,5.05
2022-09-28T08:51:01.018Z,3.05
2022-09-28T08:53:55.972Z,3.50
2022-09-28T08:56:33.696Z,2.97
2022-09-28T08:59:05.641Z,3.53
2022-09-28T09:01:39.798Z,3.90
2022-09-28T09:04:13.812Z,3.30
2022-09-28T09:07:26.038Z,2.70
2022-09-28T09:10:43.234Z,3.70
2022-09-28T09:13:37.297Z,3.30
2022-09-28T09:16:13.121Z,3.05
2022-09-28T09:19:08.160Z,3.65
2022-09-28T09:21:56.574Z,4.00
2022-09-28T09:24:27.952Z,3.75
2022-09-28T09:27:19.309Z,3.63
2022-09-28T09:30:12.669Z,4.97
2022-09-28T09:33:07.769Z,3.83
2022-09-28T09:36:06.030Z,4.38
2022-09-28T09:39:04.773Z,4.65
2022-09-28T09:42:07.031Z,3.90
2022-09-28T09:45:20.471Z,3.92
2022-09-28T09:48:14.477Z,3.75
2022-09-28T09:50:49.382Z,4.05
2022-09-28T09:53:25.124Z,4.60
2022-09-28T09:55:58.311Z,4.65
2022-09-28T09:58:36.020Z,4.38
2022-09-28T10:01:21.463Z,3.80
2022-09-28T10:04:24.390Z,4.75
2022-09-28T10:06:58.814Z,3.47
2022-09-28T10:09:32.298Z,3.80
2022-09-28T10:12:22.081Z,3.50
2022-09-28T10:14:56.404Z,2.95
2022-09-28T10:17:29.755Z,3.50
2022-09-28T10:20:18.766Z,3.25
2022-09-28T10:23:18.304Z,3.20
2022-09-28T10:25:48.759Z,3.25
2022-09-28T10:28:22.598Z,2.75
2022-09-28T10:30:51.148Z,2.97
2022-09-28T10:33:31.963Z,2.92
2022-09-28T10:36:01.229Z,2.85
2022-09-28T10:38:32.011Z,2.67
2022-09-28T10:41:13.457Z,3.40
2022-09-28T10:44:07.101Z,2.65
2022-09-28T10:47:03.263Z,3.22
2022-09-28T10:49:46.519Z,3.65
2022-09-28T10:52:39.816Z,3.10
2022-09-28T10:55:27.212Z,2.92
2022-09-28T10:57:55.703Z,3.28
2022-09-28T11:00:34.192Z,3.55
2022-09-28T11:03:25.922Z,3.50
2022-09-28T11:06:00.409Z,3.17
2022-09-28T11:08:33.065Z,3.22
2022-09-28T11:11:09.883Z,3.10
2022-09-28T11:13:47.825Z,2.45
2022-09-28T11:16:25.233Z,2.80
2022-09-28T11:18:54.598Z,2.22
2022-09-28T11:21:32.239Z,3.15
2022-09-28T11:24:07.023Z,2.90
2022-09-28T11:26:42.039Z,2.35
2022-09-28T11:29:23.453Z,2.97
2022-09-28T11:32:15.536Z,2.95
2022-09-28T11:35:04.335Z,3.65
2022-09-28T11:37:55.881Z,2.72
2022-09-28T11:40:52.223Z,2.53
2022-09-28T11:44:08.048Z,2.55
2022-09-28T11:46:45.450Z,2.70
2022-09-28T11:49:28.476Z,3.33
2022-09-28T11:52:01.995Z,2.20
2022-09-28T11:54:39.664Z,2.58
2022-09-28T11:57:15.714Z,2.40
2022-09-28T11:59:56.154Z,2.40
2022-09-28T12:02:28.441Z,2.40
2022-09-28T12:05:20.527Z,2.80
2022-09-28T12:07:54.314Z,2.28
2022-09-28T12:10:57.183Z,2.00
2022-09-28T12:13:51.449Z,2.28
2022-09-28T12:16:53.552Z,2.08
2022-09-28T12:19:19.778Z,1.88
2022-09-28T12:21:51.919Z,2.03
2022-09-28T12:24:25.987Z,2.00
2022-09-28T12:27:00.550Z,1.60
2022-09-28T12:29:33.415Z,1.77
2022-09-28T12:32:10.677Z,1.77
2022-09-28T12:34:45.993Z,1.45
2022-09-28T12:37:25.888Z,1.70
2022-09-28T12:40:23.526Z,1.90
2022-09-28T12:43:07.397Z,1.70
2022-09-28T12:46:11.142Z,1.58
2022-09-28T12:51:52.467Z,1.13
2022-09-28T12:54:46.681Z,1.90
2022-09-28T12:57:40.903Z,2.00
2022-09-28T13:00:14.472Z,1.42
2022-09-28T13:03:12.406Z,1.85
2022-09-28T13:05:59.954Z,1.98
2022-09-28T13:08:39.140Z,1.67
2022-09-28T13:11:18.634Z,1.50
2022-09-28T13:13:56.255Z,1.70
2022-09-28T13:16:31.129Z,1.55
2022-09-28T13:19:08.766Z,1.50
2022-09-28T13:21:44.976Z,1.95
2022-09-28T13:24:32.109Z,2.00
2022-09-28T13:27:06.948Z,1.67
2022-09-28T13:29:36.835Z,1.55
2022-09-28T13:32:12.076Z,1.92
2022-09-28T13:35:07.138Z,2.10
2022-09-28T13:37:35.483Z,1.80
2022-09-28T13:40:06.181Z,1.73
2022-09-28T13:43:06.454Z,1.83
2022-09-28T13:45:52.926Z,1.75
2022-09-28T13:48:25.610Z,1.23
2022-09-28T13:51:24.414Z,1.70
2022-09-28T13:54:18.373Z,1.55
2022-09-28T13:56:55.147Z,1.50
2022-09-28T13:59:28.052Z,1.40
2022-09-28T14:02:06.954Z,1.15
2022-09-28T14:04:58.263Z,1.50
2022-09-28T14:07:47.266Z,1.50
2022-09-28T14:10:21.413Z,1.75
2022-09-28T14:12:51.445Z,1.20
2022-09-28T14:15:43.752Z,1.70
2022-09-28T14:18:23.831Z,1.38
2022-09-28T14:21:05.213Z,1.70
2022-09-28T14:24:01.045Z,1.50
2022-09-28T14:27:15.752Z,1.50
2022-09-28T14:29:44.292Z,1.90
2022-09-28T14:32:34.718Z,1.63
2022-09-28T14:35:05.606Z,1.48
2022-09-28T14:37:55.306Z,1.55
2022-09-28T14:40:49.398Z,1.33
2022-09-28T14:43:25.309Z,1.55
2022-09-28T14:46:28.215Z,1.65
2022-09-28T14:48:57.834Z,1.30
2022-09-28T14:51:46.489Z,1.30
2022-09-28T14:54:20.489Z,1.40
2022-09-28T14:56:58.985Z,1.23
2022-09-28T14:59:30.680Z,1.40
2022-09-28T15:02:01.897Z,1.13
2022-09-28T15:04:31.949Z,1.27
2022-09-28T15:07:00.247Z,1.77
2022-09-28T15:10:27.325Z,1.70
2022-09-28T15:12:57.239Z,1.40
2022-09-28T15:15:29.895Z,1.20
2022-09-28T15:18:09.341Z,1.30
2022-09-28T15:20:41.606Z,1.17
2022-09-28T15:23:26.577Z,1.42
2022-09-28T15:25:56.761Z,1.23
2022-09-28T15:28:25.444Z,1.42
2022-09-28T15:31:01.746Z,1.65
2022-09-28T15:33:48.992Z,1.73
2022-09-28T15:36:21.630Z,1.40
2022-09-28T15:38:55.900Z,1.65
2022-09-28T15:41:26.843Z,1.75
2022-09-28T15:44:08.452Z,1.88
2022-09-28T15:46:38.769Z,1.15
2022-09-28T15:49:08.526Z,1.40
2022-09-28T15:51:49.959Z,1.10
2022-09-28T15:54:21.592Z,1.23
2022-09-28T15:56:57.767Z,1.90
2022-09-28T15:59:30.739Z,1.40
2022-09-28T16:02:13.677Z,1.30
2022-09-28T16:04:50.416Z,1.25
2022-09-28T16:07:20.980Z,1.25
2022-09-28T16:10:11.240Z,1.55
2022-09-28T16:12:48.752Z,1.50
2022-09-28T16:15:22.616Z,1.45
2022-09-28T16:17:53.180Z,1.35
2022-09-28T16:20:27.862Z,1.60
2022-09-28T16:23:05.867Z,1.80
2022-09-28T16:25:37.452Z,2.22
2022-09-28T16:28:07.460Z,1.90
2022-09-28T16:30:35.881Z,1.80
2022-09-28T16:33:06.708Z,1.52
2022-09-28T16:35:51.583Z,1.55
2022-09-28T16:38:25.346Z,2.08
2022-09-28T16:40:54.103Z,1.63
2022-09-28T16:43:37.667Z,1.90
2022-09-28T16:46:09.721Z,1.98
2022-09-28T16:48:41.819Z,1.73
2022-09-28T16:51:09.884Z,1.55
2022-09-28T16:53:55.269Z,1.50
2022-09-28T16:56:23.389Z,1.73
2022-09-28T16:58:53.049Z,2.13
2022-09-28T17:01:22.069Z,1.80
2022-09-28T17:03:50.280Z,1.65
2022-09-28T17:06:19.557Z,1.48
2022-09-28T17:08:47.895Z,1.73
2022-09-28T17:11:22.721Z,1.45
2022-09-28T17:13:56.621Z,1.70
2022-09-28T17:19:20.910Z,2.78
2022-09-28T17:21:50.501Z,2.20
2022-09-28T17:24:18.887Z,2.25
2022-09-28T17:26:48.367Z,3.30
2022-09-28T17:29:18.573Z,3.65
2022-09-28T17:31:48.081Z,3.63
2022-09-28T17:34:17.412Z,3.70
2022-09-28T17:36:46.257Z,3.33
2022-09-28T17:39:16.126Z,4.00
2022-09-28T17:41:44.494Z,4.20
2022-09-28T17:44:15.041Z,4.25
2022-09-28T17:46:49.076Z,4.20
2022-09-28T17:49:18.715Z,2.83
2022-09-28T17:51:46.939Z,2.63
2022-09-28T17:54:16.966Z,3.60
2022-09-28T17:56:46.162Z,3.58
2022-09-28T17:59:17.399Z,2.67
2022-09-28T18:02:15.753Z,2.55
2022-09-28T18:04:52.456Z,3.03
2022-09-28T18:07:20.868Z,2.75
2022-09-28T18:09:49.004Z,2.45
2022-09-28T18:12:17.073Z,3.45
2022-09-28T18:14:45.067Z,3.25
2022-09-28T18:17:13.091Z,3.45
2022-09-28T18:19:42.619Z,2.60
2022-09-28T18:22:10.630Z,3.28
2022-09-28T18:24:38.694Z,3.72
2022-09-28T18:27:06.752Z,3.63
2022-09-28T18:29:34.746Z,4.30
2022-09-28T18:32:06.649Z,3.40
2022-09-28T18:34:37.018Z,3.10
2022-09-28T18:37:06.953Z,5.07
2022-09-28T18:39:36.463Z,3.88
2022-09-28T18:42:04.788Z,4.10
2022-09-28T18:44:33.900Z,4.03
2022-09-28T18:47:02.890Z,3.03
2022-09-28T18:49:33.595Z,2.65
2022-09-28T18:52:02.385Z,2.90
2022-09-28T18:54:31.845Z,3.30
2022-09-28T18:57:00.189Z,5.70
2022-09-28T18:59:37.515Z,4.05
2022-09-28T19:02:05.752Z,2.78
2022-09-28T19:04:33.842Z,3.25
2022-09-28T19:07:02.098Z,4.78
2022-09-28T19:09:31.699Z,5.82
2022-09-28T19:11:59.845Z,6.15
2022-09-28T19:14:28.252Z,5.40
2022-09-28T19:16:56.368Z,4.78
2022-09-28T19:19:45.035Z,3.35
2022-09-28T19:22:13.532Z,3.28
2022-09-28T19:24:43.361Z,3.13
2022-09-28T19:27:11.489Z,4.72
2022-09-28T19:29:39.587Z,7.43
2022-09-28T19:32:07.624Z,7.95
2022-09-28T19:34:35.775Z,4.25
2022-09-28T19:37:04.458Z,3.70
2022-09-28T19:39:32.908Z,3.53
2022-09-28T19:42:02.342Z,3.00
2022-09-28T19:44:32.318Z,4.15
2022-09-28T19:47:04.147Z,3.33
2022-09-28T19:49:36.874Z,3.47
2022-09-28T19:52:13.355Z,3.30
2022-09-28T19:54:44.580Z,3.80
2022-09-28T19:57:16.047Z,3.50
2022-09-28T19:59:48.371Z,3.90
2022-09-28T20:02:19.000Z,3.35
2022-09-28T20:04:47.533Z,4.45
2022-09-28T20:07:16.084Z,4.43
2022-09-28T20:09:44.230Z,3.80
2022-09-28T20:12:12.427Z,4.57
2022-09-28T20:14:41.857Z,3.60
2022-09-28T20:17:10.764Z,4.28
2022-09-28T20:19:39.140Z,3.72
2022-09-28T20:22:07.541Z,4.75
2022-09-28T20:24:50.169Z,5.25
2022-09-28T20:27:18.286Z,4.20
2022-09-28T20:29:48.310Z,5.35
2022-09-28T20:32:16.329Z,4.60
2022-09-28T20:34:44.509Z,5.40
2022-09-28T20:37:13.681Z,4.15
2022-09-28T20:39:44.898Z,5.03
2022-09-28T20:42:14.327Z,4.53
2022-09-28T20:44:42.436Z,4.75
2022-09-28T20:47:12.041Z,4.45
2022-09-28T20:49:40.327Z,4.78
2022-09-28T20:52:08.361Z,4.65
2022-09-28T20:54:37.996Z,5.32
2022-09-28T20:57:17.282Z,5.30
2022-09-28T20:59:45.631Z,5.60
2022-09-28T21:02:16.551Z,6.00
2022-09-28T21:04:49.005Z,4.95
2022-09-28T21:07:17.042Z,5.20
2022-09-28T21:10:06.123Z,4.72
2022-09-28T21:12:34.306Z,4.90
2022-09-28T21:15:05.751Z,4.65
2022-09-28T21:17:35.538Z,4.63
2022-09-28T21:20:04.247Z,5.07
2022-09-28T21:22:32.319Z,4.28
2022-09-28T21:25:00.319Z,4.43
2022-09-28T21:27:28.366Z,4.47
2022-09-28T21:30:13.686Z,4.78
2022-09-28T21:32:43.420Z,4.78
2022-09-28T21:35:11.510Z,4.88
2022-09-28T21:37:44.515Z,5.15
2022-09-28T21:40:12.604Z,5.07
2022-09-28T21:42:43.115Z,3.88
2022-09-28T21:45:11.430Z,4.68
2022-09-28T21:47:59.878Z,4.82
2022-09-28T21:50:28.338Z,4.70
2022-09-28T21:52:57.166Z,4.00
2022-09-28T21:55:25.614Z,4.88
2022-09-28T21:57:55.852Z,4.13
2022-09-28T22:00:24.278Z,5.20
2022-09-28T22:02:52.515Z,5.78
2022-09-28T22:05:22.043Z,5.03
2022-09-28T22:07:50.138Z,4.68
2022-09-28T22:10:18.284Z,3.10
2022-09-28T22:12:46.402Z,4.30
2022-09-28T22:15:14.441Z,3.65
2022-09-28T22:17:42.508Z,3.42
2022-09-28T22:20:10.723Z,3.60
2022-09-28T22:22:40.212Z,4.07
2022-09-28T22:25:09.837Z,4.32
2022-09-28T22:27:38.932Z,4.40
2022-09-28T22:30:08.081Z,3.75
2022-09-28T22:32:36.192Z,3.47
2022-09-28T22:35:08.392Z,3.47
2022-09-28T22:37:36.454Z,4.28
2022-09-28T22:40:07.157Z,4.57
2022-09-28T22:42:35.206Z,4.25
2022-09-28T22:45:03.366Z,4.57
2022-09-28T22:47:31.392Z,3.88
2022-09-28T22:50:00.332Z,3.88
2022-09-28T22:52:28.310Z,4.53
2022-09-28T22:54:56.370Z,4.20
2022-09-28T22:57:25.915Z,3.50
2022-09-28T22:59:53.957Z,3.25
2022-09-28T23:02:21.972Z,3.95
2022-09-28T23:04:50.107Z,3.63
2022-09-28T23:07:18.118Z,3.35
2022-09-28T23:09:46.245Z,4.28
2022-09-28T23:12:14.774Z,4.47
2022-09-28T23:14:44.331Z,4.50
2022-09-28T23:17:12.419Z,3.78
2022-09-28T23:19:40.497Z,4.40
2022-09-28T23:22:08.573Z,5.00
2022-09-28T23:24:36.562Z,3.75
2022-09-28T23:27:07.185Z,4.65
2022-09-28T23:29:35.506Z,3.75
2022-09-28T23:32:12.539Z,3.88
2022-09-28T23:34:41.474Z,4.30
2022-09-28T23:37:09.867Z,3.60
2022-09-28T23:39:38.062Z,4.22
2022-09-28T23:42:06.150Z,4.30
2022-09-28T23:44:34.213Z,3.55
2022-09-28T23:47:02.331Z,3.58
2022-09-28T23:49:32.324Z,3.75
2022-09-28T23:52:01.219Z,4.07
2022-09-28T23:54:29.232Z,3.72
2022-09-28T23:56:57.278Z,3.25
2022-09-28T23:59:25.336Z,2.65
